createdAt,value
2023-04-06T00:01:05.981Z,10.98
2023-04-06T00:03:32.945Z,10.96
2023-04-06T00:05:59.895Z,10.95
2023-04-06T00:08:28.225Z,10.95
2023-04-06T00:10:55.302Z,10.94
2023-04-06T00:13:22.332Z,10.92
2023-04-06T00:15:49.339Z,10.88
2023-04-06T00:18:16.421Z,10.84
2023-04-06T00:20:43.329Z,10.79
2023-04-06T00:23:10.430Z,10.77
2023-04-06T00:25:38.693Z,10.74
2023-04-06T00:28:05.713Z,10.70
2023-04-06T00:30:32.729Z,10.66
2023-04-06T00:32:59.698Z,10.62
2023-04-06T00:35:26.793Z,10.60
2023-04-06T00:37:53.710Z,10.57
2023-04-06T00:40:20.884Z,10.53
2023-04-06T00:42:49.217Z,10.49
2023-04-06T00:45:16.252Z,10.45
2023-04-06T00:47:43.271Z,10.40
2023-04-06T00:50:10.923Z,10.36
2023-04-06T00:52:37.991Z,10.32
2023-04-06T00:55:06.402Z,10.29
2023-04-06T00:57:33.436Z,10.29
2023-04-06T01:00:01.755Z,10.29
2023-04-06T01:02:28.774Z,10.32
2023-04-06T01:04:56.140Z,10.32
2023-04-06T01:07:23.204Z,10.31
2023-04-06T01:09:50.417Z,10.30
2023-04-06T01:12:17.881Z,10.24
2023-04-06T01:14:44.869Z,10.21
2023-04-06T01:17:13.310Z,10.16
2023-04-06T01:19:41.515Z,10.09
2023-04-06T01:22:08.669Z,10.05
2023-04-06T01:24:36.932Z,10.02
2023-04-06T01:27:04.141Z,9.99
2023-04-06T01:29:31.110Z,9.96
2023-04-06T01:31:58.186Z,9.94
2023-04-06T01:34:27.497Z,9.92
2023-04-06T01:36:54.500Z,9.91
2023-04-06T01:39:21.710Z,9.92
2023-04-06T01:41:50.037Z,9.94
2023-04-06T01:44:19.366Z,9.94
2023-04-06T01:46:46.880Z,9.91
2023-04-06T01:49:14.071Z,9.90
2023-04-06T01:51:41.078Z,9.88
2023-04-06T01:54:07.989Z,9.85
2023-04-06T01:56:35.133Z,9.80
2023-04-06T01:59:03.401Z,9.78
2023-04-06T02:01:30.868Z,9.75
2023-04-06T02:03:57.792Z,9.77
2023-04-06T02:06:24.727Z,9.79
2023-04-06T02:08:51.634Z,9.79
2023-04-06T02:11:18.498Z,9.79
2023-04-06T02:13:45.519Z,9.78
2023-04-06T02:16:13.881Z,9.74
2023-04-06T02:18:40.930Z,9.70
2023-04-06T02:21:07.852Z,9.68
2023-04-06T02:23:34.704Z,9.66
2023-04-06T02:26:01.717Z,9.61
2023-04-06T02:28:28.598Z,9.58
2023-04-06T02:30:55.553Z,9.54
2023-04-06T02:33:23.875Z,9.52
2023-04-06T02:35:50.830Z,9.54
2023-04-06T02:38:17.854Z,9.54
2023-04-06T02:40:44.760Z,9.54
2023-04-06T02:43:11.654Z,9.52
2023-04-06T02:45:38.593Z,9.48
2023-04-06T02:48:06.373Z,9.47
2023-04-06T02:50:34.801Z,9.45
2023-04-06T02:53:01.886Z,9.43
2023-04-06T02:55:28.779Z,9.42
2023-04-06T02:57:55.692Z,9.42
2023-04-06T03:00:22.794Z,9.40
2023-04-06T03:02:49.790Z,9.39
2023-04-06T03:05:16.896Z,9.40
2023-04-06T03:07:45.484Z,9.42
2023-04-06T03:10:12.692Z,9.44
2023-04-06T03:12:39.677Z,9.44
2023-04-06T03:15:08.092Z,9.44
2023-04-06T03:17:35.442Z,9.42
2023-04-06T03:20:02.474Z,9.40
2023-04-06T03:22:30.474Z,9.39
2023-04-06T03:24:58.685Z,9.36
2023-04-06T03:27:25.625Z,9.32
2023-04-06T03:29:52.550Z,9.29
2023-04-06T03:32:19.448Z,9.27
2023-04-06T03:34:46.451Z,9.18
2023-04-06T03:37:13.367Z,9.13
2023-04-06T03:39:41.594Z,9.13
2023-04-06T03:42:10.319Z,9.10
2023-04-06T03:44:37.301Z,9.10
2023-04-06T03:47:04.469Z,9.11
2023-04-06T03:49:31.667Z,9.13
2023-04-06T03:51:59.389Z,9.15
2023-04-06T03:54:26.349Z,9.17
2023-04-06T03:56:53.302Z,9.18
2023-04-06T03:59:21.681Z,9.18
2023-04-06T04:01:48.748Z,9.17
2023-04-06T04:04:15.882Z,9.15
2023-04-06T04:06:42.829Z,9.12
2023-04-06T04:09:09.896Z,9.12
2023-04-06T04:11:37.116Z,9.12
2023-04-06T04:14:04.399Z,9.11
2023-04-06T04:16:32.784Z,9.08
2023-04-06T04:18:59.871Z,9.07
2023-04-06T04:21:26.818Z,9.05
2023-04-06T04:23:53.732Z,9.02
2023-04-06T04:26:20.854Z,9.01
2023-04-06T04:28:47.833Z,9.00
2023-04-06T04:31:14.767Z,8.99
2023-04-06T04:33:43.036Z,8.95
2023-04-06T04:36:11.009Z,8.91
2023-04-06T04:38:37.978Z,8.88
2023-04-06T04:41:05.233Z,8.85
2023-04-06T04:43:32.887Z,8.84
2023-04-06T04:46:00.324Z,8.83
2023-04-06T04:48:27.490Z,8.82
2023-04-06T04:50:56.208Z,8.83
2023-04-06T04:53:25.081Z,8.82
2023-04-06T04:55:54.835Z,8.83
2023-04-06T04:58:21.728Z,8.80
2023-04-06T05:00:48.603Z,8.80
2023-04-06T05:03:24.199Z,8.79
2023-04-06T05:05:51.454Z,8.82
2023-04-06T05:08:19.790Z,8.78
2023-04-06T05:10:47.576Z,8.79
2023-04-06T05:13:14.818Z,8.79
2023-04-06T05:15:42.108Z,8.84
2023-04-06T05:18:10.024Z,8.90
2023-04-06T05:20:37.432Z,8.92
2023-04-06T05:23:04.405Z,8.94
2023-04-06T05:25:33.678Z,8.95
2023-04-06T05:28:01.096Z,8.99
2023-04-06T05:30:28.178Z,9.04
2023-04-06T05:32:56.037Z,9.08
2023-04-06T05:35:23.173Z,9.11
2023-04-06T05:37:50.292Z,9.17
2023-04-06T05:40:17.503Z,9.19
2023-04-06T05:42:45.743Z,9.22
2023-04-06T05:45:17.630Z,9.23
2023-04-06T05:47:45.532Z,9.23
2023-04-06T05:50:13.679Z,9.20
2023-04-06T05:52:43.888Z,9.22
2023-04-06T05:55:12.124Z,9.23
2023-04-06T05:57:39.077Z,9.25
2023-04-06T06:00:10.702Z,9.27
2023-04-06T06:02:37.898Z,9.31
2023-04-06T06:05:05.782Z,9.37
2023-04-06T06:07:32.825Z,9.32
2023-04-06T06:09:59.972Z,9.32
2023-04-06T06:12:27.043Z,9.31
2023-04-06T06:14:54.087Z,9.31
2023-04-06T06:17:22.457Z,9.33
2023-04-06T06:19:49.513Z,9.37
2023-04-06T06:22:16.400Z,9.43
2023-04-06T06:24:43.328Z,9.48
2023-04-06T06:27:10.243Z,9.58
2023-04-06T06:29:37.217Z,9.64
2023-04-06T06:32:04.601Z,9.69
2023-04-06T06:34:33.448Z,9.67
2023-04-06T06:37:00.633Z,9.62
2023-04-06T06:39:27.734Z,9.59
2023-04-06T06:41:56.179Z,9.57
2023-04-06T06:44:23.111Z,9.59
2023-04-06T06:46:50.142Z,9.64
2023-04-06T06:49:17.189Z,9.74
2023-04-06T06:51:47.341Z,9.87
2023-04-06T06:54:14.327Z,10.01
2023-04-06T06:56:41.536Z,10.12
2023-04-06T06:59:09.170Z,10.19
2023-04-06T07:01:37.480Z,10.19
2023-04-06T07:04:05.320Z,10.24
2023-04-06T07:06:32.367Z,10.35
2023-04-06T07:09:00.704Z,10.35
2023-04-06T07:11:27.607Z,10.49
2023-04-06T07:13:54.531Z,10.80
2023-04-06T07:16:21.548Z,11.16
2023-04-06T07:18:48.884Z,11.37
2023-04-06T07:21:16.170Z,11.58
2023-04-06T07:23:43.197Z,11.86
2023-04-06T07:26:12.149Z,12.16
2023-04-06T07:28:39.302Z,12.62
2023-04-06T07:31:06.421Z,13.11
2023-04-06T07:33:33.637Z,13.73
2023-04-06T07:36:00.744Z,14.38
2023-04-06T07:38:27.759Z,14.62
2023-04-06T07:40:55.302Z,15.03
2023-04-06T07:43:23.540Z,15.66
2023-04-06T07:45:50.669Z,16.27
2023-04-06T07:48:17.656Z,16.99
2023-04-06T07:50:44.654Z,17.59
2023-04-06T07:53:11.618Z,17.58
2023-04-06T07:55:38.854Z,17.74
2023-04-06T07:58:05.921Z,18.02
2023-04-06T08:00:34.212Z,18.25
2023-04-06T08:03:01.389Z,18.75
2023-04-06T08:05:28.761Z,19.20
2023-04-06T08:07:55.771Z,19.61
2023-04-06T08:10:22.788Z,20.12
2023-04-06T08:12:49.703Z,20.58
2023-04-06T08:15:18.996Z,20.99
2023-04-06T08:17:47.407Z,21.26
2023-04-06T08:20:14.628Z,21.76
2023-04-06T08:22:41.864Z,22.15
2023-04-06T08:25:09.115Z,22.50
2023-04-06T08:27:36.110Z,22.53
2023-04-06T08:30:04.173Z,22.94
2023-04-06T08:32:31.137Z,23.38
2023-04-06T08:35:01.619Z,23.69
2023-04-06T08:37:29.054Z,23.96
2023-04-06T08:39:56.015Z,24.43
2023-04-06T08:42:29.489Z,24.45
2023-04-06T08:44:56.563Z,24.32
2023-04-06T08:47:25.052Z,23.64
2023-04-06T08:49:54.686Z,22.90
2023-04-06T08:52:24.820Z,23.05
2023-04-06T08:54:51.878Z,23.47
2023-04-06T08:57:21.313Z,23.78
2023-04-06T08:59:50.044Z,23.89
2023-04-06T09:02:19.863Z,24.18
2023-04-06T09:04:49.007Z,24.51
2023-04-06T09:07:16.533Z,24.66
2023-04-06T09:09:48.687Z,24.93
2023-04-06T09:12:25.294Z,24.74
2023-04-06T09:14:52.331Z,24.96
2023-04-06T09:17:23.159Z,25.42
2023-04-06T09:19:50.768Z,25.48
2023-04-06T09:22:18.321Z,25.64
2023-04-06T09:24:51.060Z,25.96
2023-04-06T09:27:30.663Z,26.27
2023-04-06T09:30:06.687Z,27.21
2023-04-06T09:32:33.775Z,27.09
2023-04-06T09:35:07.999Z,26.91
2023-04-06T09:37:35.512Z,27.12
2023-04-06T09:40:09.001Z,27.70
2023-04-06T09:42:36.804Z,27.78
2023-04-06T09:45:04.418Z,28.14
2023-04-06T09:47:34.228Z,28.30
2023-04-06T09:50:03.330Z,28.06
2023-04-06T09:52:34.581Z,28.10
2023-04-06T09:55:09.163Z,28.61
2023-04-06T09:57:50.016Z,28.99
2023-04-06T10:00:24.310Z,28.62
2023-04-06T10:02:59.119Z,28.52
2023-04-06T10:05:38.457Z,28.46
2023-04-06T10:08:10.812Z,28.39
2023-04-06T10:10:39.927Z,28.62
2023-04-06T10:13:08.465Z,29.06
2023-04-06T10:15:35.527Z,29.16
2023-04-06T10:18:04.547Z,29.74
2023-04-06T10:20:40.611Z,30.55
2023-04-06T10:23:17.248Z,30.40
2023-04-06T10:25:56.450Z,30.05
2023-04-06T10:28:24.961Z,29.67
2023-04-06T10:30:59.684Z,29.28
2023-04-06T10:33:28.457Z,29.18
2023-04-06T10:35:56.808Z,28.97
2023-04-06T10:38:37.075Z,28.56
2023-04-06T10:41:09.065Z,27.90
2023-04-06T10:43:38.268Z,27.78
2023-04-06T10:46:07.782Z,27.69
2023-04-06T10:48:40.235Z,27.62
2023-04-06T10:51:13.289Z,27.67
2023-04-06T10:53:43.739Z,27.31
2023-04-06T10:56:14.698Z,27.11
2023-04-06T10:58:46.782Z,27.25
2023-04-06T11:01:16.212Z,27.75
2023-04-06T11:03:46.947Z,27.95
2023-04-06T11:06:20.925Z,28.04
2023-04-06T11:08:48.542Z,28.23
2023-04-06T11:11:19.836Z,28.12
2023-04-06T11:13:50.912Z,27.88
2023-04-06T11:16:20.040Z,27.97
2023-04-06T11:18:52.923Z,28.41
2023-04-06T11:21:21.004Z,28.02
2023-04-06T11:23:48.715Z,28.12
2023-04-06T11:26:17.501Z,28.36
2023-04-06T11:28:45.013Z,28.39
2023-04-06T11:31:12.611Z,28.06
2023-04-06T11:33:40.751Z,28.06
2023-04-06T11:36:08.884Z,27.78
2023-04-06T11:38:40.942Z,27.70
2023-04-06T11:41:08.148Z,26.85
2023-04-06T11:43:36.650Z,26.81
2023-04-06T11:46:05.485Z,27.32
2023-04-06T11:48:46.093Z,27.59
2023-04-06T11:51:13.580Z,27.98
2023-04-06T11:53:46.420Z,27.37
2023-04-06T11:56:28.303Z,27.18
2023-04-06T11:58:59.408Z,27.21
2023-04-06T12:01:27.317Z,27.09
2023-04-06T12:03:54.960Z,27.03
2023-04-06T12:06:22.267Z,27.34
2023-04-06T12:08:49.392Z,27.65
2023-04-06T12:11:16.581Z,27.87
2023-04-06T12:13:43.675Z,27.97
2023-04-06T12:16:12.091Z,27.77
2023-04-06T12:18:39.284Z,27.26
2023-04-06T12:21:08.762Z,27.18
2023-04-06T12:23:36.412Z,27.38
2023-04-06T12:26:04.725Z,27.96
2023-04-06T12:28:31.874Z,28.11
2023-04-06T12:30:58.796Z,27.70
2023-04-06T12:33:27.261Z,27.08
2023-04-06T12:35:54.212Z,26.76
2023-04-06T12:38:21.449Z,26.46
2023-04-06T12:40:48.686Z,25.80
2023-04-06T12:43:15.704Z,25.52
2023-04-06T12:45:42.627Z,25.64
2023-04-06T12:48:09.637Z,26.46
2023-04-06T12:50:38.198Z,27.09
2023-04-06T12:53:05.470Z,27.11
2023-04-06T12:55:35.012Z,26.52
2023-04-06T12:58:02.634Z,26.12
2023-04-06T13:00:33.127Z,26.21
2023-04-06T13:03:00.520Z,26.56
2023-04-06T13:05:29.038Z,26.72
2023-04-06T13:07:58.503Z,26.37
2023-04-06T13:10:25.534Z,26.47
2023-04-06T13:12:52.592Z,26.66
2023-04-06T13:15:20.530Z,26.49
2023-04-06T13:17:47.710Z,25.86
2023-04-06T13:20:14.717Z,25.20
2023-04-06T13:22:41.648Z,24.71
2023-04-06T13:25:10.678Z,24.39
2023-04-06T13:27:37.934Z,24.64
2023-04-06T13:30:06.699Z,24.56
2023-04-06T13:32:34.074Z,24.39
2023-04-06T13:35:01.856Z,24.23
2023-04-06T13:37:28.912Z,24.63
2023-04-06T13:39:55.964Z,25.30
2023-04-06T13:42:24.398Z,25.46
2023-04-06T13:44:51.783Z,25.75
2023-04-06T13:47:18.823Z,26.20
2023-04-06T13:49:45.983Z,26.36
2023-04-06T13:52:13.135Z,26.30
2023-04-06T13:54:40.458Z,26.39
2023-04-06T13:57:08.448Z,26.43
2023-04-06T13:59:37.380Z,26.21
2023-04-06T14:02:06.691Z,25.82
2023-04-06T14:04:34.516Z,25.76
2023-04-06T14:07:02.927Z,25.49
2023-04-06T14:09:30.816Z,25.20
2023-04-06T14:11:58.589Z,25.09
2023-04-06T14:14:27.293Z,25.28
2023-04-06T14:16:55.744Z,25.21
2023-04-06T14:19:23.015Z,25.22
2023-04-06T14:21:50.479Z,25.30
2023-04-06T14:24:18.995Z,25.55
2023-04-06T14:26:46.171Z,25.10
2023-04-06T14:29:13.276Z,24.70
2023-04-06T14:31:40.527Z,24.47
2023-04-06T14:34:08.836Z,24.32
2023-04-06T14:36:39.206Z,24.19
2023-04-06T14:39:07.555Z,24.04
2023-04-06T14:41:35.721Z,23.92
2023-04-06T14:44:03.093Z,23.44
2023-04-06T14:46:30.145Z,23.24
2023-04-06T14:48:58.596Z,22.94
2023-04-06T14:51:30.440Z,22.82
2023-04-06T14:53:57.783Z,22.72
2023-04-06T14:56:25.384Z,22.36
2023-04-06T14:58:52.927Z,22.26
2023-04-06T15:01:21.695Z,22.25
2023-04-06T15:03:49.060Z,22.70
2023-04-06T15:06:20.584Z,22.20
2023-04-06T15:08:50.757Z,21.95
2023-04-06T15:11:25.011Z,22.08
2023-04-06T15:13:52.610Z,22.02
2023-04-06T15:16:19.609Z,21.87
2023-04-06T15:18:46.707Z,21.81
2023-04-06T15:21:13.807Z,21.62
2023-04-06T15:23:40.776Z,21.65
2023-04-06T15:26:09.305Z,21.59
2023-04-06T15:28:36.324Z,21.66
2023-04-06T15:31:07.055Z,21.74
2023-04-06T15:33:34.748Z,21.85
2023-04-06T15:36:09.303Z,22.42
2023-04-06T15:38:36.524Z,22.24
2023-04-06T15:41:05.121Z,22.24
2023-04-06T15:43:36.777Z,22.09
2023-04-06T15:48:35.015Z,21.75
2023-04-06T15:51:02.631Z,21.77
2023-04-06T15:53:29.862Z,21.86
2023-04-06T15:55:59.820Z,21.87
2023-04-06T15:58:27.044Z,21.64
2023-04-06T16:00:56.276Z,21.58
2023-04-06T16:03:27.205Z,21.53
2023-04-06T16:06:14.380Z,21.50
2023-04-06T16:08:43.114Z,21.48
2023-04-06T16:11:16.845Z,21.18
2023-04-06T16:13:50.019Z,20.89
2023-04-06T16:16:27.584Z,20.68
2023-04-06T16:19:04.338Z,20.59
2023-04-06T16:21:32.283Z,20.58
2023-04-06T16:24:09.006Z,20.52
2023-04-06T16:26:37.529Z,20.51
2023-04-06T16:29:13.333Z,20.50
2023-04-06T16:31:49.459Z,20.47
2023-04-06T16:34:28.370Z,20.40
2023-04-06T16:36:57.553Z,20.35
2023-04-06T16:39:24.587Z,20.31
2023-04-06T16:41:51.591Z,20.24
2023-04-06T16:44:18.567Z,20.20
2023-04-06T16:46:46.956Z,20.13
2023-04-06T16:49:14.334Z,20.06
2023-04-06T16:51:41.875Z,19.96
2023-04-06T16:54:09.548Z,19.87
2023-04-06T16:56:36.564Z,19.84
2023-04-06T16:59:06.734Z,19.80
2023-04-06T17:01:33.737Z,19.76
2023-04-06T17:04:02.274Z,19.74
2023-04-06T17:06:29.483Z,19.72
2023-04-06T17:08:57.023Z,19.70
2023-04-06T17:11:28.554Z,19.67
2023-04-06T17:14:00.517Z,19.62
2023-04-06T17:16:29.063Z,19.56
2023-04-06T17:18:56.869Z,19.46
2023-04-06T17:21:26.155Z,19.33
2023-04-06T17:23:53.483Z,19.22
2023-04-06T17:26:21.546Z,19.13
2023-04-06T17:28:48.464Z,19.09
2023-04-06T17:31:15.784Z,19.01
2023-04-06T17:33:43.907Z,18.97
2023-04-06T17:36:12.148Z,18.90
2023-04-06T17:38:44.366Z,18.84
2023-04-06T17:41:13.360Z,18.77
2023-04-06T17:43:40.647Z,18.73
2023-04-06T17:46:07.876Z,18.69
2023-04-06T17:48:35.653Z,18.67
2023-04-06T17:51:03.537Z,18.63
2023-04-06T17:53:32.561Z,18.57
2023-04-06T17:56:06.847Z,18.49
2023-04-06T17:58:35.384Z,18.44
2023-04-06T18:01:11.237Z,18.40
2023-04-06T18:03:39.275Z,18.36
2023-04-06T18:06:11.255Z,18.32
2023-04-06T18:08:38.301Z,18.28
2023-04-06T18:11:07.554Z,18.23
2023-04-06T18:13:36.193Z,18.17
2023-04-06T18:16:06.127Z,18.11
2023-04-06T18:18:33.415Z,18.07
2023-04-06T18:21:04.851Z,18.04
2023-04-06T18:23:33.325Z,17.98
2023-04-06T18:26:02.012Z,17.92
2023-04-06T18:28:31.725Z,17.88
2023-04-06T18:30:59.716Z,17.85
2023-04-06T18:33:29.856Z,17.82
2023-04-06T18:35:56.998Z,17.77
2023-04-06T18:38:24.478Z,17.73
2023-04-06T18:40:52.606Z,17.72
2023-04-06T18:43:20.230Z,17.69
2023-04-06T18:45:48.857Z,17.66
2023-04-06T18:48:16.184Z,17.58
2023-04-06T18:50:52.866Z,17.54
2023-04-06T18:53:21.097Z,17.53
2023-04-06T18:55:48.163Z,17.52
2023-04-06T18:58:15.369Z,17.52
2023-04-06T19:00:42.910Z,17.48
2023-04-06T19:03:11.276Z,17.43
2023-04-06T19:05:41.196Z,17.30
2023-04-06T19:08:08.447Z,17.19
2023-04-06T19:10:35.601Z,17.12
2023-04-06T19:13:03.168Z,17.05
2023-04-06T19:15:30.607Z,17.02
2023-04-06T19:17:57.883Z,16.99
2023-04-06T19:20:26.252Z,16.99
2023-04-06T19:25:20.513Z,16.95
2023-04-06T19:27:47.431Z,16.89
2023-04-06T19:30:14.620Z,16.87
2023-04-06T19:32:42.194Z,16.86
2023-04-06T19:35:09.598Z,16.83
2023-04-06T19:37:38.921Z,16.80
2023-04-06T19:40:10.347Z,16.78
2023-04-06T19:42:38.780Z,16.76
2023-04-06T19:45:07.685Z,16.76
2023-04-06T19:47:35.419Z,16.74
2023-04-06T19:50:02.730Z,16.72
2023-04-06T19:52:30.971Z,16.70
2023-04-06T19:54:59.713Z,16.69
2023-04-06T19:57:27.412Z,16.66
2023-04-06T19:59:58.067Z,16.59
2023-04-06T20:02:25.371Z,16.56
2023-04-06T20:04:52.459Z,16.52
2023-04-06T20:07:19.583Z,16.42
2023-04-06T20:09:46.899Z,16.40
2023-04-06T20:12:15.397Z,16.36
2023-04-06T20:14:42.726Z,16.35
2023-04-06T20:17:13.307Z,16.36
2023-04-06T20:19:40.238Z,16.37
2023-04-06T20:22:07.233Z,16.38
2023-04-06T20:24:34.186Z,16.39
2023-04-06T20:27:01.362Z,16.35
2023-04-06T20:29:29.629Z,16.27
2023-04-06T20:31:58.117Z,16.22
2023-04-06T20:34:28.712Z,16.18
2023-04-06T20:36:56.322Z,16.13
2023-04-06T20:39:24.157Z,16.11
2023-04-06T20:41:52.653Z,16.09
2023-04-06T20:44:21.343Z,16.04
2023-04-06T20:46:50.532Z,15.98
2023-04-06T20:49:18.520Z,15.94
2023-04-06T20:51:45.782Z,15.86
2023-04-06T20:54:12.757Z,15.83
2023-04-06T20:56:39.849Z,15.79
2023-04-06T20:59:06.732Z,15.71
2023-04-06T21:01:34.394Z,15.66
2023-04-06T21:04:04.325Z,15.59
2023-04-06T21:06:32.260Z,15.47
2023-04-06T21:09:00.733Z,15.42
2023-04-06T21:11:27.983Z,15.36
2023-04-06T21:13:54.945Z,15.26
2023-04-06T21:16:22.045Z,15.11
2023-04-06T21:18:48.966Z,15.04
2023-04-06T21:21:17.255Z,14.79
2023-04-06T21:23:44.387Z,14.66
2023-04-06T21:26:12.556Z,14.61
2023-04-06T21:28:39.508Z,14.58
2023-04-06T21:31:10.582Z,14.62
2023-04-06T21:33:37.487Z,14.64
2023-04-06T21:36:05.984Z,14.66
2023-04-06T21:38:35.255Z,14.64
2023-04-06T21:41:02.227Z,14.61
2023-04-06T21:43:29.265Z,14.60
2023-04-06T21:45:56.447Z,14.56
2023-04-06T21:48:23.384Z,14.50
2023-04-06T21:50:50.622Z,14.43
2023-04-06T21:53:18.188Z,14.37
2023-04-06T21:55:47.548Z,14.31
2023-04-06T21:58:15.171Z,14.27
2023-04-06T22:00:42.347Z,14.24
2023-04-06T22:03:09.747Z,14.17
2023-04-06T22:05:40.369Z,14.11
2023-04-06T22:08:09.598Z,14.11
2023-04-06T22:10:39.987Z,14.08
2023-04-06T22:13:08.419Z,14.09
2023-04-06T22:15:35.724Z,14.17
2023-04-06T22:18:02.758Z,14.22
2023-04-06T22:20:29.921Z,14.26
2023-04-06T22:22:57.256Z,14.27
2023-04-06T22:25:24.269Z,14.23
2023-04-06T22:27:51.185Z,14.22
2023-04-06T22:30:19.694Z,14.22
2023-04-06T22:32:46.738Z,14.22
2023-04-06T22:35:13.838Z,14.22
2023-04-06T22:37:42.896Z,14.16
2023-04-06T22:40:11.644Z,14.13
2023-04-06T22:42:38.739Z,14.11
2023-04-06T22:45:06.971Z,14.10
2023-04-06T22:47:35.354Z,14.09
2023-04-06T22:50:02.516Z,14.09
2023-04-06T22:52:29.507Z,14.05
2023-04-06T22:54:56.676Z,14.02
2023-04-06T22:57:23.682Z,13.92
2023-04-06T22:59:51.275Z,13.89
2023-04-06T23:02:18.667Z,13.86
2023-04-06T23:04:47.089Z,13.83
2023-04-06T23:07:15.419Z,13.81
2023-04-06T23:09:44.131Z,13.81
2023-04-06T23:12:11.535Z,13.81
2023-04-06T23:14:38.567Z,13.78
2023-04-06T23:17:05.782Z,13.79
2023-04-06T23:19:33.049Z,13.79
2023-04-06T23:22:01.999Z,13.73
2023-04-06T23:24:29.129Z,13.65
2023-04-06T23:26:56.323Z,13.54
2023-04-06T23:29:23.610Z,13.49
2023-04-06T23:31:50.790Z,13.50
2023-04-06T23:34:17.771Z,13.47
2023-04-06T23:36:45.288Z,13.47
2023-04-06T23:39:13.651Z,13.48
2023-04-06T23:41:40.616Z,13.49
2023-04-06T23:44:07.755Z,13.50
2023-04-06T23:46:34.831Z,13.48
2023-04-06T23:49:01.768Z,13.42
2023-04-06T23:51:28.741Z,13.33
2023-04-06T23:53:55.789Z,13.29
2023-04-06T23:56:24.095Z,13.27
2023-04-06T23:58:51.142Z,13.29
